createdAt,value
2023-01-01T00:01:56.966Z,135.57
2023-01-01T00:04:55.221Z,126.93
2023-01-01T00:08:05.583Z,117.95
2023-01-01T00:10:54.476Z,129.10
2023-01-01T00:14:10.120Z,138.68
2023-01-01T00:17:11.722Z,152.68
2023-01-01T00:20:35.154Z,151.07
2023-01-01T00:23:48.890Z,151.82
2023-01-01T00:27:08.078Z,142.00
2023-01-01T00:30:19.394Z,122.55
2023-01-01T00:33:13.994Z,100.03
2023-01-01T00:40:01.617Z,96.28
2023-01-01T00:43:25.369Z,106.35
2023-01-01T00:46:50.844Z,92.93
2023-01-01T00:58:00.693Z,111.30
2023-01-01T01:01:07.865Z,108.30
2023-01-01T01:04:34.120Z,107.32
2023-01-01T01:20:15.365Z,88.18
2023-01-01T07:13:14.823Z,21.33
2023-01-01T07:16:24.420Z,19.83
2023-01-01T07:19:35.361Z,17.63
2023-01-01T07:23:09.890Z,18.42
2023-01-01T07:26:22.001Z,16.83
2023-01-01T07:29:19.774Z,16.52
2023-01-01T07:32:45.560Z,17.65
2023-01-01T07:36:18.652Z,18.23
2023-01-01T07:39:16.512Z,16.63
2023-01-01T07:42:58.106Z,16.75
2023-01-01T07:46:14.457Z,15.52
2023-01-01T07:49:18.713Z,15.90
2023-01-01T07:52:36.503Z,14.98
2023-01-01T07:55:41.179Z,16.48
2023-01-01T07:58:50.473Z,16.17
2023-01-01T08:02:17.664Z,15.52
2023-01-01T08:05:41.985Z,14.85
2023-01-01T08:08:41.858Z,14.00
2023-01-01T08:12:09.529Z,14.52
2023-01-01T08:15:30.988Z,14.43
2023-01-01T08:21:40.520Z,14.35
2023-01-01T08:24:59.171Z,13.20
2023-01-01T08:27:51.109Z,13.52
2023-01-01T08:31:07.423Z,13.98
2023-01-01T08:34:08.875Z,15.05
2023-01-01T08:37:07.324Z,15.18
2023-01-01T08:40:29.960Z,14.35
2023-01-01T08:43:33.590Z,14.32
2023-01-01T08:47:37.246Z,13.23
2023-01-01T08:51:01.814Z,14.40
2023-01-01T08:54:16.846Z,12.30
2023-01-01T08:58:00.152Z,12.25
2023-01-01T09:01:57.189Z,12.10
2023-01-01T09:05:01.757Z,10.80
2023-01-01T09:18:58.053Z,8.48
2023-01-01T09:22:14.486Z,7.90
2023-01-01T09:37:00.499Z,5.78
2023-01-01T09:40:14.099Z,5.88
2023-01-01T09:47:57.851Z,5.82
2023-01-01T09:58:59.574Z,5.70
2023-01-01T10:02:58.149Z,5.88
2023-01-01T10:14:47.498Z,6.20
2023-01-01T10:21:14.579Z,5.20
2023-01-01T10:25:13.872Z,5.30
2023-01-01T10:29:19.792Z,5.18
2023-01-01T10:32:20.826Z,5.75
2023-01-01T10:35:22.899Z,5.03
2023-01-01T10:52:34.866Z,6.03
2023-01-01T11:04:37.826Z,5.45
2023-01-01T11:11:51.755Z,5.13
2023-01-01T11:15:32.271Z,4.68
2023-01-01T11:18:34.255Z,4.07
2023-01-01T11:21:48.781Z,5.28
2023-01-01T11:24:42.228Z,4.50
2023-01-01T11:29:11.819Z,4.50
2023-01-01T11:33:05.056Z,4.05
2023-01-01T11:41:04.239Z,4.40
2023-01-01T11:44:12.543Z,3.60
2023-01-01T11:47:45.738Z,3.45
2023-01-01T11:50:54.062Z,4.10
2023-01-01T11:53:48.217Z,3.30
2023-01-01T11:56:44.957Z,4.00
2023-01-01T12:00:11.381Z,4.05
2023-01-01T12:03:20.745Z,3.53
2023-01-01T12:06:28.146Z,4.05
2023-01-01T12:10:17.731Z,3.63
2023-01-01T12:13:22.173Z,4.35
2023-01-01T12:19:52.837Z,4.00
2023-01-01T12:23:08.794Z,3.78
2023-01-01T12:26:38.108Z,3.80
2023-01-01T12:30:56.869Z,4.10
2023-01-01T12:34:27.742Z,3.67
2023-01-01T12:38:07.404Z,3.90
2023-01-01T12:41:36.692Z,3.70
2023-01-01T12:45:13.635Z,4.03
2023-01-01T12:48:29.800Z,3.75
2023-01-01T12:56:47.221Z,3.83
2023-01-01T12:59:41.579Z,4.30
2023-01-01T13:03:20.853Z,4.57
2023-01-01T13:10:55.893Z,3.63
2023-01-01T13:14:18.799Z,4.13
2023-01-01T13:26:16.732Z,4.10
2023-01-01T13:44:46.252Z,3.88
2023-01-01T13:52:31.827Z,4.40
2023-01-01T13:56:09.828Z,4.13
2023-01-01T14:06:14.318Z,4.75
2023-01-01T14:09:19.702Z,3.90
2023-01-01T14:12:23.372Z,3.97
2023-01-01T14:15:54.747Z,4.13
2023-01-01T14:18:54.706Z,3.95
2023-01-01T14:21:45.908Z,3.65
2023-01-01T14:24:48.428Z,4.45
2023-01-01T14:27:37.262Z,4.30
2023-01-01T14:30:27.287Z,4.72
2023-01-01T14:33:28.567Z,4.18
2023-01-01T14:36:29.484Z,4.47
2023-01-01T14:39:34.923Z,4.18
2023-01-01T14:42:29.799Z,4.38
2023-01-01T14:45:29.073Z,4.35
2023-01-01T14:48:23.309Z,4.95
2023-01-01T14:55:17.043Z,4.80
2023-01-01T15:00:10.950Z,4.45
2023-01-01T15:02:14.631Z,4.85
2023-01-01T15:06:00.958Z,5.03
2023-01-01T15:10:14.462Z,4.40
2023-01-01T15:23:25.870Z,5.18
2023-01-01T15:43:27.063Z,4.65
2023-01-01T16:06:08.615Z,5.10
2023-01-01T16:09:09.210Z,5.28
2023-01-01T16:12:18.763Z,6.07
2023-01-01T16:15:22.093Z,6.07
2023-01-01T16:18:21.226Z,5.47
2023-01-01T16:21:18.445Z,6.40
2023-01-01T16:24:36.175Z,6.20
2023-01-01T16:32:54.033Z,6.72
2023-01-01T17:35:33.182Z,7.05
2023-01-01T19:22:01.677Z,12.27
2023-01-01T23:10:20.456Z,10.80
